Time;durP1;ratioP1;P1;durP2;ratioP2;P2;SDS_P1;SDS_P2;PMS_P1;PMS_P2;Temp;Humidity;BMP_temperature;BMP_pressure;BME280_temperature;BME280_humidity;BME280_pressure;Samples;Min_cycle;Max_cycle;Signal;HPM_P1;HPM_P2
2023/12/30 18:27:09;;;;;;;;;;;;;;;21.77;33.46;91509.19;5095340;27;19977;-56
2023/12/30 18:29:34;;;;;;;;;;;;;;;21.04;34.93;91506.72;5016566;28;20356;-57
2023/12/30 18:32:01;;;;;;;;;;;;;;;20.93;35.08;91512.44;4995392;28;261200;-59
2023/12/30 18:43:16;;;;;;;;;;;;;;;21.10;34.86;91501.53;4987105;27;12202;-48
2023/12/30 18:46:37;;;;;;;154.48;59.70;;;;;;;20.97;35.56;91496.22;5013919;28;20412;-57
2023/12/30 18:49:03;;;;;;;142.38;55.83;;;;;;;21.02;34.84;91499.06;4980694;28;20042;-60
2023/12/30 18:51:28;;;;;;;128.85;50.90;;;;;;;20.78;35.37;91495.28;5005470;28;20496;-46
2023/12/30 18:59:57;;;;;;;98.45;39.97;;;;;;;21.06;34.89;91498.97;5092521;27;20389;-55
2023/12/30 19:02:22;;;;;;;86.70;37.08;;;;;;;20.88;34.94;91488.81;5092012;28;20028;-55
2023/12/30 19:04:48;;;;;;;85.05;34.97;;;;;;;20.84;35.51;91487.41;5091170;28;20036;-56
2023/12/30 19:07:14;;;;;;;83.32;34.20;;;;;;;20.80;35.42;91478.75;5084427;28;20042;-56
2023/12/30 19:09:39;;;;;;;84.88;32.97;;;;;;;20.78;35.19;91481.84;5084226;28;20058;-54
2023/12/30 19:12:06;;;;;;;75.25;31.83;;;;;;;20.75;35.41;91474.66;5087098;28;20064;-54
2023/12/30 19:14:32;;;;;;;69.10;29.17;;;;;;;20.72;35.42;91473.59;5026008;28;20038;-53
2023/12/30 19:16:58;;;;;;;69.03;27.95;;;;;;;20.68;34.95;91477.59;5037757;28;20084;-56
2023/12/30 19:19:23;;;;;;;79.55;35.15;;;;;;;20.50;34.59;91468.13;5033680;28;20017;-54
2023/12/30 19:26:07;;;;;;;7.85;5.15;;;;;;;12.52;36.60;91483.53;5030964;27;20412;-84
2023/12/30 19:28:32;;;;;;;7.65;4.20;;;;;;;10.23;41.89;91477.75;5013804;28;20033;-84
2023/12/30 19:30:58;;;;;;;9.68;4.57;;;;;;;8.45;46.25;91480.19;5012898;28;20049;-84
2023/12/30 19:33:23;;;;;;;10.35;4.78;;;;;;;7.46;49.13;91483.66;5014280;28;20030;-84
2023/12/30 19:35:49;;;;;;;7.28;3.83;;;;;;;6.58;51.51;91475.66;4982984;28;20053;-83
2023/12/30 19:38:14;;;;;;;5.45;3.22;;;;;;;6.18;52.63;91477.50;4863981;28;266460;-84
2023/12/30 19:40:42;;;;;;;5.88;3.08;;;;;;;5.37;55.46;91477.16;4984671;28;20026;-84
2023/12/30 19:43:09;;;;;;;5.32;2.78;;;;;;;4.98;57.21;91471.72;4978142;28;20032;-85
2023/12/30 19:45:34;;;;;;;7.65;2.90;;;;;;;4.45;59.00;91472.94;4975959;28;20444;-84
2023/12/30 19:48:00;;;;;;;7.57;2.97;;;;;;;4.00;60.20;91468.69;4989996;28;20128;-84
2023/12/30 19:50:27;;;;;;;5.82;2.80;;;;;;;3.94;61.52;91475.25;4993419;28;20034;-83
2023/12/30 19:52:53;;;;;;;4.85;2.35;;;;;;;3.58;61.92;91469.75;4976677;28;20030;-84
2023/12/30 19:55:19;;;;;;;6.15;2.78;;;;;;;3.06;64.11;91465.13;4992632;28;20032;-87
2023/12/30 19:57:45;;;;;;;5.78;2.70;;;;;;;3.33;64.16;91466.34;4973099;28;20032;-85
2023/12/30 20:00:13;;;;;;;5.07;2.30;;;;;;;3.26;64.09;91460.16;4976636;28;20093;-86
2023/12/30 20:02:42;;;;;;;7.40;3.00;;;;;;;3.10;64.43;91466.03;4991279;28;20129;-86
2023/12/30 20:05:15;;;;;;;6.40;3.03;;;;;;;3.06;64.60;91467.75;4994060;28;20034;-86
2023/12/30 20:07:40;;;;;;;7.05;3.17;;;;;;;2.93;64.78;91459.13;4990748;28;20030;-84
2023/12/30 20:10:11;;;;;;;7.32;2.92;;;;;;;3.01;65.03;91465.38;4980210;28;20042;-84
2023/12/30 20:12:37;;;;;;;5.82;2.40;;;;;;;2.89;64.93;91462.72;4975005;28;20052;-84
2023/12/30 20:15:04;;;;;;;10.55;2.90;;;;;;;2.87;65.10;91459.66;4972437;28;20141;-84
2023/12/30 20:17:29;;;;;;;8.35;3.13;;;;;;;2.72;66.06;91461.06;4978540;28;20136;-84
2023/12/30 20:19:55;;;;;;;7.93;3.47;;;;;;;2.69;65.95;91461.69;5013715;28;20132;-84
2023/12/30 20:22:21;;;;;;;7.22;3.08;;;;;;;2.54;66.60;91457.84;5031210;28;20040;-84
2023/12/30 20:24:46;;;;;;;6.10;2.65;;;;;;;2.46;66.82;91450.84;5015347;28;20025;-85
2023/12/30 20:27:12;;;;;;;6.13;2.25;;;;;;;2.38;67.34;91446.50;5031541;28;20025;-84
2023/12/30 20:29:41;;;;;;;6.30;2.90;;;;;;;2.29;67.78;91446.56;5000729;28;20419;-84
2023/12/30 20:32:07;;;;;;;5.18;2.13;;;;;;;2.30;68.05;91440.25;5002365;28;20037;-84
2023/12/30 20:34:33;;;;;;;5.18;2.65;;;;;;;2.19;68.11;91433.88;5041192;28;20399;-84
2023/12/30 20:37:00;;;;;;;4.72;2.38;;;;;;;2.06;68.77;91433.09;5002188;28;20052;-84
2023/12/30 20:39:27;;;;;;;4.32;2.00;;;;;;;2.14;68.48;91437.47;5000495;28;20137;-84
2023/12/30 20:41:52;;;;;;;4.72;2.10;;;;;;;2.19;67.93;91433.88;5015392;28;20472;-84
2023/12/30 20:44:18;;;;;;;3.38;1.50;;;;;;;2.25;68.67;91435.97;5019610;28;20035;-84
2023/12/30 20:46:46;;;;;;;4.07;1.55;;;;;;;2.21;68.73;91439.56;5017241;28;20026;-84
2023/12/30 20:49:15;;;;;;;3.50;1.60;;;;;;;2.22;68.33;91441.09;5023451;28;20033;-84
2023/12/30 20:51:49;;;;;;;3.70;1.40;;;;;;;2.22;68.72;91433.25;5016128;28;20034;-84
2023/12/30 20:54:16;;;;;;;3.80;1.80;;;;;;;2.25;68.19;91438.59;5024231;28;20033;-84
2023/12/30 20:56:42;;;;;;;2.88;1.42;;;;;;;2.23;68.73;91440.78;5030861;28;20122;-84
2023/12/30 20:59:09;;;;;;;4.85;1.70;;;;;;;2.11;68.99;91437.34;5008428;28;20036;-85
2023/12/30 21:01:34;;;;;;;3.45;1.58;;;;;;;2.14;68.55;91434.09;5003738;28;20612;-84
2023/12/30 21:04:00;;;;;;;4.13;1.70;;;;;;;2.06;69.28;91436.44;5016078;28;20065;-85
2023/12/30 21:06:27;;;;;;;3.38;1.50;;;;;;;2.10;68.68;91438.41;4999576;28;20124;-84
2023/12/30 21:08:53;;;;;;;3.67;1.70;;;;;;;2.02;68.73;91430.34;5013064;28;20484;-85
2023/12/30 21:11:19;;;;;;;3.40;1.65;;;;;;;1.98;69.19;91426.09;5016718;28;20051;-84
2023/12/30 21:13:45;;;;;;;4.40;1.85;;;;;;;1.74;69.43;91419.66;5017824;28;20037;-83
2023/12/30 21:16:16;;;;;;;3.83;1.92;;;;;;;1.75;69.83;91423.06;4998658;28;20071;-83
2023/12/30 21:18:42;;;;;;;4.90;2.03;;;;;;;1.89;69.38;91417.56;5013037;28;20044;-84
2023/12/30 21:21:08;;;;;;;3.83;1.83;;;;;;;1.73;69.65;91412.94;5020618;28;20029;-84
2023/12/30 21:23:33;;;;;;;4.03;2.05;;;;;;;1.70;70.04;91404.97;5007623;28;20398;-84
2023/12/30 21:25:59;;;;;;;3.55;1.60;;;;;;;1.76;69.89;91411.53;5013161;28;20587;-84
2023/12/30 21:28:29;;;;;;;4.47;2.20;;;;;;;1.49;70.40;91400.50;5007884;28;20033;-84
2023/12/30 21:30:55;;;;;;;4.32;2.17;;;;;;;1.57;70.41;91402.31;5032854;28;20037;-85
2023/12/30 21:33:20;;;;;;;3.72;1.67;;;;;;;1.64;70.44;91393.22;4999992;28;20017;-84
2023/12/30 21:35:46;;;;;;;3.80;1.80;;;;;;;1.71;69.96;91393.47;5014812;28;20021;-84
2023/12/30 21:38:11;;;;;;;5.25;2.05;;;;;;;1.59;70.04;91388.94;5015046;28;20056;-84
2023/12/30 21:40:37;;;;;;;4.65;2.15;;;;;;;1.61;69.65;91384.19;5030918;28;20396;-85
2023/12/30 21:43:03;;;;;;;4.15;1.92;;;;;;;1.74;70.02;91385.00;5015953;28;20108;-83
2023/12/30 21:45:28;;;;;;;4.07;1.73;;;;;;;2.00;69.20;91382.94;5014760;28;20029;-85
2023/12/30 21:47:54;;;;;;;5.03;2.25;;;;;;;1.83;69.27;91380.50;5014130;28;20022;-84
2023/12/30 21:50:19;;;;;;;3.67;1.52;;;;;;;1.83;69.46;91385.69;4998457;28;20562;-85
2023/12/30 21:52:45;;;;;;;4.30;1.60;;;;;;;1.79;69.11;91382.22;5012372;28;20030;-84
2023/12/30 21:55:11;;;;;;;4.40;1.75;;;;;;;1.73;69.89;91376.44;5015972;28;20034;-85
2023/12/30 21:57:36;;;;;;;4.50;1.70;;;;;;;1.50;70.39;91372.59;5013347;28;20029;-85
2023/12/30 22:00:04;;;;;;;4.20;1.85;;;;;;;1.49;69.90;91371.09;4996805;28;20053;-85
2023/12/30 22:02:29;;;;;;;4.70;1.73;;;;;;;1.62;69.65;91359.63;5033359;28;20033;-85
2023/12/30 22:04:55;;;;;;;3.95;1.73;;;;;;;1.59;70.26;91355.84;5003375;28;20572;-85
2023/12/30 22:07:20;;;;;;;3.17;1.42;;;;;;;1.62;70.38;91351.81;5021503;28;20033;-85
2023/12/30 22:09:46;;;;;;;2.53;1.35;;;;;;;1.59;70.34;91352.47;5033700;28;20034;-85
2023/12/30 22:12:12;;;;;;;3.67;1.42;;;;;;;1.56;70.81;91347.88;5031050;28;20052;-85
2023/12/30 22:14:38;;;;;;;2.60;1.35;;;;;;;1.51;70.73;91343.63;5011481;28;20470;-85
2023/12/30 22:17:03;;;;;;;3.97;1.48;;;;;;;1.57;70.27;91349.44;5034002;28;20055;-84
2023/12/30 22:19:29;;;;;;;2.58;1.20;;;;;;;1.66;70.24;91346.75;5016322;28;20437;-85
2023/12/30 22:21:54;;;;;;;3.28;1.00;;;;;;;1.69;69.77;91346.88;5024339;28;20083;-85
2023/12/30 22:24:21;;;;;;;1.98;1.17;;;;;;;1.71;69.44;91346.53;5034297;28;20047;-84
2023/12/30 22:26:46;;;;;;;3.25;1.00;;;;;;;1.73;69.43;91345.16;5044569;28;20033;-85
2023/12/30 22:29:12;;;;;;;2.97;1.15;;;;;;;1.75;68.87;91337.78;5007234;28;20040;-84
2023/12/30 22:31:41;;;;;;;2.88;0.90;;;;;;;1.75;69.11;91326.59;5016356;28;20033;-84
2023/12/30 22:34:07;;;;;;;3.28;1.00;;;;;;;1.65;69.01;91327.72;5047656;28;20029;-85
2023/12/30 22:36:32;;;;;;;2.80;1.20;;;;;;;1.65;69.06;91319.13;5050472;28;20425;-84
2023/12/30 22:38:58;;;;;;;2.28;0.85;;;;;;;1.63;69.15;91323.94;5018706;28;20033;-85
2023/12/30 22:41:24;;;;;;;2.00;0.90;;;;;;;1.64;69.01;91322.84;5014291;28;20550;-84
2023/12/30 22:43:49;;;;;;;1.50;0.80;;;;;;;1.63;68.78;91310.91;5003751;28;20120;-85
2023/12/30 22:46:15;;;;;;;5.18;1.13;;;;;;;1.52;69.22;91307.91;5008813;28;20152;-84
2023/12/30 22:48:40;;;;;;;2.28;0.80;;;;;;;1.47;69.17;91300.28;5009434;28;20031;-85
2023/12/30 22:51:06;;;;;;;1.88;0.90;;;;;;;1.54;68.73;91290.88;5020629;28;20086;-85
2023/12/30 22:53:31;;;;;;;1.95;0.70;;;;;;;1.55;68.45;91292.38;5025349;28;20136;-84
2023/12/30 22:55:57;;;;;;;1.83;0.90;;;;;;;1.58;68.55;91289.16;5015837;28;20059;-85
2023/12/30 22:58:22;;;;;;;2.53;0.80;;;;;;;1.52;68.82;91280.00;5024795;28;20086;-86
2023/12/30 23:00:50;;;;;;;2.00;0.85;;;;;;;1.56;68.61;91270.44;5019337;28;20112;-84
2023/12/30 23:03:16;;;;;;;2.03;0.82;;;;;;;1.52;68.30;91268.81;5007347;28;20509;-84
2023/12/30 23:05:43;;;;;;;1.85;0.85;;;;;;;1.55;68.18;91268.94;5020126;28;20116;-85
2023/12/30 23:08:09;;;;;;;1.95;0.60;;;;;;;1.63;68.23;91263.97;5013635;28;20041;-86
2023/12/30 23:10:34;;;;;;;1.95;0.80;;;;;;;1.46;68.66;91255.22;5023789;28;20024;-85
2023/12/30 23:13:00;;;;;;;3.47;0.80;;;;;;;1.56;68.05;91251.44;5004405;28;20566;-85
2023/12/30 23:15:25;;;;;;;1.92;0.90;;;;;;;1.41;68.68;91252.81;5049240;28;20025;-85
2023/12/30 23:17:51;;;;;;;2.00;0.73;;;;;;;1.43;68.78;91255.09;5033346;28;20017;-84
2023/12/30 23:20:17;;;;;;;1.88;0.70;;;;;;;1.56;67.92;91247.00;5010697;28;20041;-85
2023/12/30 23:22:42;;;;;;;2.65;1.00;;;;;;;1.43;67.94;91245.44;5028003;28;20118;-84
2023/12/30 23:25:08;;;;;;;1.95;0.70;;;;;;;1.40;68.49;91243.47;5008477;28;20623;-85
2023/12/30 23:27:33;;;;;;;2.20;0.80;;;;;;;1.41;67.99;91233.81;5016116;28;20044;-84
2023/12/30 23:30:00;;;;;;;2.05;0.70;;;;;;;1.43;67.77;91236.88;5012057;28;20057;-85
2023/12/30 23:32:26;;;;;;;1.52;0.60;;;;;;;1.46;67.92;91223.19;5002220;28;20057;-86
2023/12/30 23:34:52;;;;;;;1.50;0.70;;;;;;;1.24;68.72;91219.88;5025325;28;20036;-85
2023/12/30 23:37:17;;;;;;;2.22;0.90;;;;;;;1.26;68.87;91219.53;5008885;28;20041;-85
2023/12/30 23:39:45;;;;;;;2.10;0.70;;;;;;;1.47;67.94;91220.25;5031068;28;20029;-85
2023/12/30 23:42:10;;;;;;;2.15;0.80;;;;;;;1.22;67.43;91219.41;5032802;28;20029;-85
2023/12/30 23:44:36;;;;;;;1.67;0.80;;;;;;;0.96;68.87;91222.22;5013209;28;20025;-85
2023/12/30 23:47:01;;;;;;;1.40;0.70;;;;;;;1.03;68.54;91217.28;5011104;28;20106;-86
2023/12/30 23:49:27;;;;;;;1.90;0.90;;;;;;;1.01;69.12;91216.81;5033062;28;20056;-84
2023/12/30 23:51:52;;;;;;;2.10;0.90;;;;;;;1.16;68.83;91212.13;4996409;28;20458;-85
2023/12/30 23:54:18;;;;;;;1.67;0.70;;;;;;;1.22;67.98;91210.84;5022212;28;20048;-85
2023/12/30 23:56:43;;;;;;;1.58;0.73;;;;;;;1.04;68.84;91202.41;5026772;28;20072;-85
2023/12/30 23:59:09;;;;;;;1.85;0.90;;;;;;;1.09;68.56;91197.78;5004836;28;20175;-85
